createdAt,value
2023-03-15T00:00:53.935Z,1.38
2023-03-15T00:03:25.977Z,1.50
2023-03-15T00:05:52.481Z,1.58
2023-03-15T00:08:19.487Z,1.73
2023-03-15T00:10:47.372Z,1.45
2023-03-15T00:13:16.634Z,1.58
2023-03-15T00:15:47.878Z,2.15
2023-03-15T00:18:15.147Z,1.33
2023-03-15T00:20:42.307Z,1.70
2023-03-15T00:23:09.268Z,1.40
2023-03-15T00:25:36.101Z,1.67
2023-03-15T00:28:02.569Z,1.25
2023-03-15T00:30:30.357Z,1.38
2023-03-15T00:32:56.981Z,1.70
2023-03-15T00:35:24.115Z,1.58
2023-03-15T00:37:54.448Z,1.50
2023-03-15T00:40:21.087Z,1.60
2023-03-15T00:42:47.524Z,1.40
2023-03-15T00:45:14.000Z,1.60
2023-03-15T00:47:41.910Z,1.45
2023-03-15T00:50:08.976Z,1.50
2023-03-15T00:52:35.725Z,1.50
2023-03-15T00:55:02.746Z,1.40
2023-03-15T00:57:29.287Z,1.83
2023-03-15T00:59:55.924Z,1.50
2023-03-15T01:02:22.497Z,1.70
2023-03-15T01:04:50.471Z,1.55
2023-03-15T01:07:16.935Z,1.40
2023-03-15T01:09:43.448Z,1.40
2023-03-15T01:12:10.023Z,1.60
2023-03-15T01:14:36.598Z,1.58
2023-03-15T01:17:03.274Z,1.40
2023-03-15T01:19:29.869Z,1.40
2023-03-15T01:21:57.590Z,1.52
2023-03-15T01:24:24.070Z,1.67
2023-03-15T01:26:50.571Z,1.65
2023-03-15T01:29:17.038Z,1.40
2023-03-15T01:31:43.672Z,1.30
2023-03-15T01:34:10.385Z,1.67
2023-03-15T01:36:36.890Z,1.50
2023-03-15T01:39:04.693Z,1.52
2023-03-15T01:41:32.059Z,1.70
2023-03-15T01:43:58.541Z,1.67
2023-03-15T01:46:28.282Z,1.65
2023-03-15T01:49:00.384Z,1.40
2023-03-15T01:51:33.825Z,1.30
2023-03-15T01:54:04.733Z,1.27
2023-03-15T01:56:35.335Z,1.35
2023-03-15T01:59:05.417Z,1.45
2023-03-15T02:01:36.152Z,1.50
2023-03-15T02:04:07.470Z,1.45
2023-03-15T02:06:35.061Z,1.40
2023-03-15T02:09:04.848Z,1.35
2023-03-15T02:11:33.896Z,1.42
2023-03-15T02:14:05.157Z,1.33
2023-03-15T02:16:31.750Z,1.40
2023-03-15T02:18:58.417Z,1.13
2023-03-15T02:21:42.310Z,1.40
2023-03-15T02:24:25.790Z,0.93
2023-03-15T02:26:55.803Z,1.38
2023-03-15T02:29:26.300Z,1.27
2023-03-15T02:31:52.997Z,1.42
2023-03-15T02:34:19.527Z,1.25
2023-03-15T02:36:46.092Z,1.27
2023-03-15T02:39:15.147Z,1.30
2023-03-15T02:41:45.127Z,1.48
2023-03-15T02:44:16.078Z,1.30
2023-03-15T02:46:44.987Z,1.30
2023-03-15T02:49:13.369Z,1.00
2023-03-15T02:51:39.863Z,1.20
2023-03-15T02:54:06.484Z,1.30
2023-03-15T02:56:33.031Z,1.33
2023-03-15T02:58:59.752Z,1.10
2023-03-15T03:01:26.448Z,1.02
2023-03-15T03:03:54.304Z,1.27
2023-03-15T03:06:20.789Z,1.08
2023-03-15T03:08:47.489Z,1.25
2023-03-15T03:11:14.906Z,1.10
2023-03-15T03:13:42.161Z,1.13
2023-03-15T03:16:09.605Z,1.10
2023-03-15T03:18:36.096Z,1.23
2023-03-15T03:21:05.632Z,1.13
2023-03-15T03:23:33.499Z,1.00
2023-03-15T03:26:01.280Z,1.30
2023-03-15T03:28:30.602Z,1.05
2023-03-15T03:30:57.206Z,1.10
2023-03-15T03:33:23.947Z,1.30
2023-03-15T03:35:50.835Z,1.20
2023-03-15T03:38:18.624Z,1.08
2023-03-15T03:40:45.687Z,1.00
2023-03-15T03:43:12.212Z,0.93
2023-03-15T03:45:38.734Z,1.05
2023-03-15T03:48:05.439Z,1.17
2023-03-15T03:50:31.884Z,1.10
2023-03-15T03:52:58.349Z,1.20
2023-03-15T03:55:26.179Z,0.98
2023-03-15T03:57:52.739Z,1.35
2023-03-15T04:00:19.810Z,1.17
2023-03-15T04:02:46.372Z,1.00
2023-03-15T04:05:13.357Z,1.15
2023-03-15T04:07:40.191Z,0.82
2023-03-15T04:10:07.193Z,1.10
2023-03-15T04:12:35.168Z,0.80
2023-03-15T04:15:01.682Z,1.00
2023-03-15T04:17:28.120Z,0.85
2023-03-15T04:19:54.562Z,0.90
2023-03-15T04:22:21.056Z,0.98
2023-03-15T04:24:47.540Z,1.00
2023-03-15T04:27:13.991Z,1.20
2023-03-15T04:29:42.260Z,1.05
2023-03-15T04:32:09.140Z,1.48
2023-03-15T04:34:35.616Z,1.20
2023-03-15T04:37:02.102Z,1.20
2023-03-15T04:39:28.721Z,1.27
2023-03-15T04:41:55.195Z,1.00
2023-03-15T04:44:21.886Z,1.27
2023-03-15T04:46:49.738Z,0.90
2023-03-15T04:49:16.227Z,1.10
2023-03-15T04:51:42.711Z,1.02
2023-03-15T04:54:09.191Z,0.95
2023-03-15T04:56:35.720Z,0.80
2023-03-15T04:59:02.219Z,1.10
2023-03-15T05:01:30.986Z,1.05
2023-03-15T05:03:59.527Z,1.10
2023-03-15T05:06:26.351Z,1.20
2023-03-15T05:08:53.785Z,0.88
2023-03-15T05:11:20.787Z,1.10
2023-03-15T05:13:47.217Z,1.00
2023-03-15T05:16:13.807Z,1.00
2023-03-15T05:18:40.342Z,0.70
2023-03-15T05:21:08.193Z,1.00
2023-03-15T05:23:34.690Z,1.02
2023-03-15T05:26:01.195Z,1.15
2023-03-15T05:28:27.804Z,1.10
2023-03-15T05:30:54.367Z,1.00
2023-03-15T05:33:21.235Z,1.08
2023-03-15T05:35:48.452Z,0.88
2023-03-15T05:38:16.439Z,1.10
2023-03-15T05:40:44.072Z,0.93
2023-03-15T05:43:10.945Z,1.00
2023-03-15T05:45:37.819Z,1.00
2023-03-15T05:48:05.357Z,0.80
2023-03-15T05:50:32.443Z,0.82
2023-03-15T05:52:59.359Z,1.08
2023-03-15T05:55:27.211Z,0.90
2023-03-15T05:57:53.752Z,1.02
2023-03-15T06:00:20.684Z,1.10
2023-03-15T06:02:47.353Z,1.00
2023-03-15T06:05:13.932Z,1.00
2023-03-15T06:07:40.384Z,0.90
2023-03-15T06:10:07.489Z,0.80
2023-03-15T06:12:35.202Z,0.80
2023-03-15T06:15:01.712Z,0.82
2023-03-15T06:17:28.259Z,1.10
2023-03-15T06:19:54.799Z,0.82
2023-03-15T06:22:21.233Z,0.77
2023-03-15T06:24:47.668Z,1.02
2023-03-15T06:27:14.158Z,0.90
2023-03-15T06:29:41.941Z,1.20
2023-03-15T06:32:09.052Z,1.40
2023-03-15T06:34:35.569Z,2.25
2023-03-15T06:37:02.151Z,3.92
2023-03-15T06:39:28.977Z,2.88
2023-03-15T06:41:55.466Z,2.42
2023-03-15T06:44:22.499Z,2.63
2023-03-15T06:46:50.310Z,2.25
2023-03-15T06:49:16.734Z,2.13
2023-03-15T06:51:43.343Z,3.28
2023-03-15T06:54:10.153Z,1.98
2023-03-15T06:56:36.689Z,2.03
2023-03-15T06:59:03.582Z,2.03
2023-03-15T07:01:30.173Z,2.25
2023-03-15T07:03:58.031Z,2.20
2023-03-15T07:06:24.581Z,2.00
2023-03-15T07:08:51.212Z,1.70
2023-03-15T07:11:17.799Z,2.80
2023-03-15T07:13:44.309Z,2.40
2023-03-15T07:16:11.029Z,2.38
2023-03-15T07:18:37.560Z,3.53
2023-03-15T07:21:05.878Z,2.83
2023-03-15T07:23:32.457Z,3.35
2023-03-15T07:25:59.089Z,4.07
2023-03-15T07:28:27.175Z,3.90
2023-03-15T07:30:55.103Z,3.95
2023-03-15T07:33:21.834Z,2.78
2023-03-15T07:35:49.024Z,2.65
2023-03-15T07:38:17.515Z,2.88
2023-03-15T07:40:44.141Z,2.88
2023-03-15T07:43:10.754Z,2.70
2023-03-15T07:45:37.528Z,2.90
2023-03-15T07:48:04.268Z,2.83
2023-03-15T07:50:30.837Z,2.40
2023-03-15T07:52:57.359Z,2.80
2023-03-15T07:55:25.645Z,3.22
2023-03-15T07:57:53.396Z,2.88
2023-03-15T08:00:20.721Z,2.58
2023-03-15T08:02:47.246Z,2.50
2023-03-15T08:05:13.806Z,2.15
2023-03-15T08:07:40.371Z,1.90
2023-03-15T08:10:07.817Z,2.08
2023-03-15T08:12:35.784Z,2.03
2023-03-15T08:15:02.363Z,2.17
2023-03-15T08:17:32.100Z,2.13
2023-03-15T08:19:58.627Z,2.72
2023-03-15T08:22:25.141Z,2.72
2023-03-15T08:24:51.629Z,3.28
2023-03-15T08:52:55.494Z,2.30
2023-03-15T08:55:21.983Z,2.45
2023-03-15T08:57:48.687Z,2.63
2023-03-15T09:00:16.616Z,2.30
2023-03-15T09:02:43.194Z,2.28
2023-03-15T09:05:09.661Z,2.15
2023-03-15T09:07:36.317Z,2.00
2023-03-15T09:10:05.681Z,1.98
2023-03-15T09:12:32.217Z,2.30
2023-03-15T09:14:58.800Z,2.30
2023-03-15T09:17:25.259Z,1.90
2023-03-15T09:19:51.760Z,2.40
2023-03-15T09:22:29.260Z,2.85
2023-03-15T09:25:07.435Z,3.35
2023-03-15T09:27:34.133Z,3.88
2023-03-15T09:30:00.985Z,3.17
2023-03-15T09:32:28.105Z,2.95
2023-03-15T09:34:54.796Z,3.55
2023-03-15T09:37:21.569Z,3.40
2023-03-15T09:39:48.192Z,3.75
2023-03-15T09:42:20.464Z,3.53
2023-03-15T09:44:48.484Z,3.30
2023-03-15T09:47:28.308Z,4.65
2023-03-15T09:50:01.373Z,3.63
2023-03-15T09:52:37.840Z,3.25
2023-03-15T09:55:12.608Z,3.53
2023-03-15T09:57:46.099Z,4.10
2023-03-15T10:00:19.273Z,3.47
2023-03-15T10:02:55.335Z,3.30
2023-03-15T10:05:26.229Z,3.58
2023-03-15T10:07:52.750Z,3.75
2023-03-15T10:10:26.096Z,3.28
2023-03-15T10:13:02.789Z,3.60
2023-03-15T10:15:41.357Z,3.00
2023-03-15T10:18:31.375Z,3.17
2023-03-15T10:21:06.503Z,3.10
2023-03-15T10:23:45.171Z,2.97
2023-03-15T10:26:18.314Z,2.78
2023-03-15T10:28:46.607Z,3.42
2023-03-15T10:31:22.314Z,2.67
2023-03-15T10:33:57.080Z,3.40
2023-03-15T10:36:25.345Z,3.42
2023-03-15T10:38:51.983Z,2.55
2023-03-15T10:41:29.329Z,3.25
2023-03-15T10:43:59.945Z,3.47
2023-03-15T10:46:26.645Z,2.58
2023-03-15T10:48:58.618Z,3.55
2023-03-15T10:51:27.596Z,2.85
2023-03-15T10:53:56.811Z,3.20
2023-03-15T10:56:26.092Z,2.65
2023-03-15T10:59:09.483Z,3.08
2023-03-15T11:01:40.159Z,2.90
2023-03-15T11:04:15.871Z,3.53
2023-03-15T11:06:45.151Z,3.42
2023-03-15T11:09:13.767Z,3.63
2023-03-15T11:11:51.738Z,3.92
2023-03-15T11:14:18.741Z,3.55
2023-03-15T11:16:49.741Z,3.03
2023-03-15T11:19:18.128Z,4.07
2023-03-15T11:21:45.356Z,3.80
2023-03-15T11:24:21.391Z,3.80
2023-03-15T11:26:48.400Z,3.22
2023-03-15T11:31:06.585Z,4.60
2023-03-15T11:33:41.325Z,4.20
2023-03-15T11:36:15.528Z,3.20
2023-03-15T11:38:44.099Z,3.08
2023-03-15T11:41:20.157Z,3.78
2023-03-15T11:43:54.878Z,2.80
2023-03-15T11:46:27.953Z,3.47
2023-03-15T11:49:01.181Z,2.95
2023-03-15T11:51:29.212Z,2.63
2023-03-15T11:54:05.470Z,3.38
2023-03-15T11:56:47.472Z,3.00
2023-03-15T11:59:17.029Z,3.40
2023-03-15T12:01:46.653Z,3.17
2023-03-15T12:04:38.075Z,2.67
2023-03-15T12:07:10.838Z,3.08
2023-03-15T12:09:45.717Z,2.72
2023-03-15T12:12:35.259Z,3.03
2023-03-15T12:15:05.061Z,5.13
2023-03-15T12:17:44.860Z,2.20
2023-03-15T12:20:19.979Z,2.85
2023-03-15T12:22:51.620Z,3.15
2023-03-15T12:25:22.999Z,2.80
2023-03-15T12:27:52.548Z,3.20
2023-03-15T12:30:22.933Z,2.75
2023-03-15T12:32:53.764Z,2.40
2023-03-15T12:35:24.440Z,2.97
2023-03-15T12:37:53.624Z,4.20
2023-03-15T12:40:39.190Z,2.50
2023-03-15T12:43:05.911Z,2.42
2023-03-15T12:45:38.319Z,3.25
2023-03-15T12:48:24.647Z,3.08
2023-03-15T12:50:55.250Z,2.70
2023-03-15T12:53:28.079Z,2.28
2023-03-15T12:56:06.131Z,2.75
2023-03-15T12:58:37.031Z,2.20
2023-03-15T13:01:07.541Z,2.25
2023-03-15T13:03:36.322Z,3.20
2023-03-15T13:06:08.385Z,1.95
2023-03-15T13:08:43.912Z,1.75
2023-03-15T13:11:20.689Z,1.77
2023-03-15T13:13:58.004Z,2.92
2023-03-15T13:16:33.038Z,2.05
2023-03-15T13:19:10.369Z,2.47
2023-03-15T13:21:47.200Z,1.65
2023-03-15T13:24:23.090Z,2.00
2023-03-15T13:26:56.882Z,1.70
2023-03-15T13:29:28.926Z,1.77
2023-03-15T13:32:13.126Z,1.65
2023-03-15T13:37:14.902Z,1.52
2023-03-15T13:39:53.479Z,1.70
2023-03-15T13:42:25.930Z,1.90
2023-03-15T13:45:06.846Z,1.80
2023-03-15T13:47:34.809Z,1.95
2023-03-15T13:50:06.033Z,1.90
2023-03-15T13:52:33.184Z,1.40
2023-03-15T13:55:00.186Z,1.90
2023-03-15T13:57:29.784Z,2.20
2023-03-15T14:00:00.013Z,1.60
2023-03-15T14:02:36.754Z,1.75
2023-03-15T14:05:06.720Z,1.92
2023-03-15T14:07:36.363Z,2.03
2023-03-15T14:10:08.769Z,1.50
2023-03-15T14:12:35.705Z,1.77
2023-03-15T14:15:02.279Z,1.90
2023-03-15T14:17:31.559Z,1.85
2023-03-15T14:20:07.261Z,1.98
2023-03-15T14:22:34.361Z,1.73
2023-03-15T14:25:00.817Z,1.95
2023-03-15T14:27:28.335Z,2.50
2023-03-15T14:29:57.484Z,1.80
2023-03-15T14:32:29.184Z,2.42
2023-03-15T14:35:00.656Z,2.33
2023-03-15T14:37:36.509Z,2.67
2023-03-15T14:40:15.499Z,1.95
2023-03-15T14:42:42.408Z,2.60
2023-03-15T14:45:09.593Z,1.95
2023-03-15T14:47:48.675Z,2.92
2023-03-15T14:50:24.203Z,2.15
2023-03-15T14:52:52.519Z,1.88
2023-03-15T14:55:22.973Z,2.15
2023-03-15T14:57:49.946Z,2.22
2023-03-15T15:00:18.457Z,2.67
2023-03-15T15:02:48.097Z,2.70
2023-03-15T15:05:24.769Z,2.20
2023-03-15T15:08:05.201Z,2.75
2023-03-15T15:10:33.447Z,2.00
2023-03-15T15:13:06.389Z,2.05
2023-03-15T15:15:47.381Z,2.28
2023-03-15T15:18:20.842Z,1.90
2023-03-15T15:20:47.584Z,1.80
2023-03-15T15:23:18.666Z,1.92
2023-03-15T15:25:46.775Z,2.10
2023-03-15T15:28:15.812Z,1.75
2023-03-15T15:33:13.600Z,2.50
2023-03-15T15:35:40.293Z,1.45
2023-03-15T15:38:10.726Z,2.05
2023-03-15T15:40:39.268Z,2.10
2023-03-15T15:43:06.491Z,1.80
2023-03-15T15:45:33.052Z,1.63
2023-03-15T15:47:59.832Z,1.90
2023-03-15T15:50:26.488Z,1.70
2023-03-15T15:52:53.248Z,1.70
2023-03-15T15:55:22.683Z,1.58
2023-03-15T15:57:51.307Z,1.50
2023-03-15T16:00:21.796Z,2.00
2023-03-15T16:02:48.480Z,1.60
2023-03-15T16:05:15.661Z,1.52
2023-03-15T16:07:42.318Z,1.45
2023-03-15T16:10:18.209Z,1.67
2023-03-15T16:12:45.145Z,1.40
2023-03-15T16:15:16.031Z,1.85
2023-03-15T16:17:42.690Z,1.23
2023-03-15T16:20:11.106Z,1.23
2023-03-15T16:22:40.446Z,1.25
2023-03-15T16:25:11.233Z,1.60
2023-03-15T16:27:37.820Z,1.38
2023-03-15T16:30:05.139Z,1.85
2023-03-15T16:32:43.406Z,1.55
2023-03-15T16:35:11.999Z,1.60
2023-03-15T16:37:38.759Z,1.60
2023-03-15T16:40:06.282Z,1.27
2023-03-15T16:42:32.860Z,1.60
2023-03-15T16:44:59.418Z,1.17
2023-03-15T16:47:25.957Z,1.80
2023-03-15T16:49:53.777Z,1.45
2023-03-15T16:52:20.281Z,1.42
2023-03-15T16:54:48.422Z,1.40
2023-03-15T16:57:19.715Z,1.05
2023-03-15T16:59:46.288Z,1.40
2023-03-15T17:02:16.856Z,1.75
2023-03-15T17:04:43.341Z,1.98
2023-03-15T17:07:11.541Z,1.17
2023-03-15T17:09:38.101Z,1.35
2023-03-15T17:12:05.064Z,1.35
2023-03-15T17:14:32.983Z,1.50
2023-03-15T17:16:59.789Z,1.30
2023-03-15T17:19:26.298Z,1.35
2023-03-15T17:21:53.381Z,1.40
2023-03-15T17:24:21.233Z,1.45
2023-03-15T17:26:48.220Z,1.55
2023-03-15T17:29:15.518Z,1.60
2023-03-15T17:31:42.057Z,1.65
2023-03-15T17:34:08.703Z,1.30
2023-03-15T17:36:37.040Z,1.20
2023-03-15T17:39:04.999Z,1.20
2023-03-15T17:41:34.543Z,1.27
2023-03-15T17:44:01.232Z,1.13
2023-03-15T17:46:27.925Z,1.40
2023-03-15T17:48:54.625Z,1.33
2023-03-15T17:51:23.241Z,1.42
2023-03-15T17:53:50.405Z,1.20
2023-03-15T17:56:17.057Z,1.30
2023-03-15T17:58:45.218Z,1.20
2023-03-15T18:01:15.040Z,1.15
2023-03-15T18:03:41.843Z,1.30
2023-03-15T18:06:08.449Z,1.38
2023-03-15T18:08:34.956Z,1.50
2023-03-15T18:11:01.580Z,1.13
2023-03-15T18:13:28.104Z,1.30
2023-03-15T18:15:56.034Z,1.55
2023-03-15T18:18:22.651Z,1.42
2023-03-15T18:20:49.155Z,1.10
2023-03-15T18:23:16.906Z,1.05
2023-03-15T18:25:43.351Z,1.10
2023-03-15T18:28:12.032Z,1.45
2023-03-15T18:30:38.504Z,1.08
2023-03-15T18:33:06.312Z,1.42
2023-03-15T18:35:35.056Z,1.45
2023-03-15T18:38:01.862Z,1.20
2023-03-15T18:40:29.817Z,1.20
2023-03-15T18:42:56.389Z,1.20
2023-03-15T18:45:25.408Z,1.23
2023-03-15T18:47:52.328Z,1.48
2023-03-15T18:50:20.802Z,1.25
2023-03-15T18:52:47.681Z,1.75
2023-03-15T18:55:16.644Z,1.17
2023-03-15T18:57:44.041Z,1.30
2023-03-15T19:00:13.613Z,1.35
2023-03-15T19:02:41.199Z,1.20
2023-03-15T19:05:08.740Z,1.20
2023-03-15T19:07:36.591Z,1.50
2023-03-15T19:10:03.237Z,1.10
2023-03-15T19:12:29.768Z,1.05
2023-03-15T19:14:56.319Z,1.20
2023-03-15T19:17:22.956Z,1.23
2023-03-15T19:19:49.533Z,1.20
2023-03-15T19:22:16.195Z,1.17
2023-03-15T19:24:43.976Z,1.10
2023-03-15T19:27:10.523Z,1.33
2023-03-15T19:29:36.988Z,1.17
2023-03-15T19:32:03.710Z,1.40
2023-03-15T19:34:30.298Z,1.40
2023-03-15T19:36:56.780Z,1.25
2023-03-15T19:39:23.288Z,1.45
2023-03-15T19:41:51.134Z,1.30
2023-03-15T19:44:17.559Z,1.30
2023-03-15T19:46:44.110Z,1.25
2023-03-15T19:49:10.739Z,1.00
2023-03-15T19:51:37.332Z,1.15
2023-03-15T19:54:04.273Z,1.27
2023-03-15T19:56:30.754Z,1.73
2023-03-15T19:58:58.527Z,1.27
2023-03-15T20:01:25.120Z,1.23
2023-03-15T20:03:51.638Z,1.30
2023-03-15T20:06:18.144Z,1.10
2023-03-15T20:08:44.649Z,1.20
2023-03-15T20:11:11.129Z,1.15
2023-03-15T20:13:37.856Z,1.20
2023-03-15T20:16:06.402Z,1.30
2023-03-15T20:18:32.913Z,1.10
2023-03-15T20:20:59.393Z,1.10
2023-03-15T20:23:25.945Z,1.00
2023-03-15T20:26:02.440Z,1.20
2023-03-15T20:28:28.910Z,1.23
2023-03-15T20:30:55.380Z,1.30
2023-03-15T20:33:23.209Z,1.35
2023-03-15T20:35:49.771Z,1.10
2023-03-15T20:38:16.296Z,1.25
2023-03-15T20:40:42.836Z,1.23
2023-03-15T20:43:11.235Z,1.23
2023-03-15T20:45:37.835Z,1.40
2023-03-15T20:48:04.322Z,1.30
2023-03-15T20:50:32.142Z,1.23
2023-03-15T20:52:58.606Z,1.27
2023-03-15T20:55:25.206Z,0.95
2023-03-15T20:57:53.296Z,1.25
2023-03-15T21:00:21.231Z,1.40
2023-03-15T21:02:48.207Z,1.42
2023-03-15T21:05:17.106Z,0.90
2023-03-15T21:07:45.958Z,1.23
2023-03-15T21:10:13.231Z,1.50
2023-03-15T21:12:39.870Z,1.25
2023-03-15T21:15:07.469Z,1.40
2023-03-15T21:17:33.974Z,1.00
2023-03-15T21:20:00.581Z,1.40
2023-03-15T21:22:27.133Z,1.30
2023-03-15T21:24:56.417Z,1.35
2023-03-15T21:27:23.202Z,1.40
2023-03-15T21:29:49.834Z,1.20
2023-03-15T21:32:16.263Z,1.10
2023-03-15T21:34:42.719Z,1.25
2023-03-15T21:37:09.409Z,1.30
2023-03-15T21:39:35.878Z,1.35
2023-03-15T21:42:03.825Z,1.23
2023-03-15T21:44:30.485Z,1.25
2023-03-15T21:46:56.926Z,1.02
2023-03-15T21:49:23.400Z,1.20
2023-03-15T21:51:49.844Z,0.93
2023-03-15T21:54:16.357Z,1.20
2023-03-15T21:56:42.912Z,1.27
2023-03-15T21:59:10.777Z,0.82
2023-03-15T22:01:37.560Z,1.15
2023-03-15T22:04:04.097Z,1.27
2023-03-15T22:06:30.557Z,1.30
2023-03-15T22:08:57.054Z,1.05
2023-03-15T22:11:23.548Z,1.23
2023-03-15T22:13:49.974Z,1.00
2023-03-15T22:16:17.848Z,1.20
2023-03-15T22:18:44.391Z,1.20
2023-03-15T22:21:10.903Z,1.13
2023-03-15T22:23:37.394Z,1.40
2023-03-15T22:26:03.916Z,1.40
2023-03-15T22:28:30.669Z,1.15
2023-03-15T22:30:57.285Z,0.93
2023-03-15T22:33:25.198Z,0.90
2023-03-15T22:35:54.247Z,1.38
2023-03-15T22:38:20.966Z,1.00
2023-03-15T22:40:47.370Z,1.30
2023-03-15T22:43:14.266Z,1.17
2023-03-15T22:45:40.753Z,1.50
2023-03-15T22:48:07.299Z,1.30
2023-03-15T22:50:35.122Z,1.00
2023-03-15T22:53:01.538Z,1.13
2023-03-15T22:55:27.960Z,1.13
2023-03-15T22:57:54.460Z,1.20
2023-03-15T23:00:22.239Z,1.20
2023-03-15T23:02:48.915Z,1.00
2023-03-15T23:05:15.606Z,1.17
2023-03-15T23:07:43.483Z,1.15
2023-03-15T23:10:11.566Z,1.00
2023-03-15T23:12:38.048Z,1.42
2023-03-15T23:15:05.303Z,0.80
2023-03-15T23:17:31.986Z,0.95
2023-03-15T23:19:58.790Z,1.13
2023-03-15T23:22:25.277Z,1.30
2023-03-15T23:24:53.058Z,0.80
2023-03-15T23:27:19.517Z,1.10
2023-03-15T23:29:54.574Z,1.00
2023-03-15T23:32:22.259Z,1.27
2023-03-15T23:34:49.007Z,1.10
2023-03-15T23:37:15.533Z,1.00
2023-03-15T23:39:42.185Z,0.82
2023-03-15T23:42:10.432Z,1.10
2023-03-15T23:44:37.014Z,1.00
2023-03-15T23:47:03.994Z,1.30
2023-03-15T23:49:30.466Z,1.23
2023-03-15T23:51:56.908Z,1.30
2023-03-15T23:54:23.854Z,1.05
2023-03-15T23:56:50.743Z,0.95
2023-03-15T23:59:18.556Z,0.88
